createdAt,value
2023-04-12T00:00:14.242Z,78
2023-04-12T00:03:39.641Z,79
2023-04-12T00:07:04.702Z,79
2023-04-12T00:10:29.955Z,79
2023-04-12T00:13:55.338Z,79
2023-04-12T00:17:20.431Z,79
2023-04-12T00:20:45.614Z,80
2023-04-12T00:24:10.789Z,79
2023-04-12T00:27:36.091Z,80
2023-04-12T00:31:01.383Z,80
2023-04-12T00:34:26.535Z,80
2023-04-12T00:37:51.751Z,81
2023-04-12T00:41:16.981Z,80
2023-04-12T00:44:42.206Z,79
2023-04-12T00:48:07.450Z,79
2023-04-12T00:51:32.684Z,80
2023-04-12T00:54:57.912Z,79
2023-04-12T00:58:23.102Z,80
2023-04-12T01:01:48.362Z,80
2023-04-12T01:05:13.569Z,80
2023-04-12T01:08:38.785Z,80
2023-04-12T01:12:04.003Z,80
2023-04-12T01:15:29.242Z,80
2023-04-12T01:18:54.430Z,80
2023-04-12T01:22:19.720Z,81
2023-04-12T01:25:44.902Z,80
2023-04-12T01:29:10.116Z,81
2023-04-12T01:32:35.354Z,80
2023-04-12T01:36:00.587Z,81
2023-04-12T01:39:25.780Z,81
2023-04-12T01:42:50.992Z,81
2023-04-12T01:46:16.261Z,82
2023-04-12T01:49:41.413Z,83
2023-04-12T01:53:06.611Z,83
2023-04-12T01:56:31.872Z,82
2023-04-12T01:59:57.026Z,82
2023-04-12T02:03:22.360Z,83
2023-04-12T02:06:47.471Z,83
2023-04-12T02:10:12.690Z,83
2023-04-12T02:13:37.930Z,83
2023-04-12T02:17:03.202Z,82
2023-04-12T02:20:28.320Z,82
2023-04-12T02:23:53.565Z,82
2023-04-12T02:27:18.829Z,83
2023-04-12T02:30:44.103Z,84
2023-04-12T02:34:09.178Z,83
2023-04-12T02:37:34.393Z,82
2023-04-12T02:40:59.605Z,82
2023-04-12T02:44:24.802Z,83
2023-04-12T02:47:50.086Z,83
2023-04-12T02:51:15.252Z,83
2023-04-12T02:54:40.476Z,82
2023-04-12T02:58:05.672Z,82
2023-04-12T03:01:30.947Z,82
2023-04-12T03:04:56.149Z,82
2023-04-12T03:08:21.282Z,82
2023-04-12T03:11:46.496Z,81
2023-04-12T03:15:11.705Z,81
2023-04-12T03:18:36.889Z,81
2023-04-12T03:22:02.129Z,82
2023-04-12T03:25:27.319Z,82
2023-04-12T03:28:52.536Z,82
2023-04-12T03:32:17.750Z,83
2023-04-12T03:35:42.961Z,84
2023-04-12T03:39:08.534Z,84
2023-04-12T03:42:34.002Z,83
2023-04-12T03:45:58.966Z,83
2023-04-12T03:49:24.169Z,82
2023-04-12T03:52:49.372Z,83
2023-04-12T03:56:14.616Z,83
2023-04-12T03:59:39.807Z,83
2023-04-12T04:03:05.081Z,83
2023-04-12T04:06:30.247Z,83
2023-04-12T04:09:55.462Z,83
2023-04-12T04:13:20.674Z,83
2023-04-12T04:16:45.864Z,83
2023-04-12T04:20:11.068Z,82
2023-04-12T04:23:36.261Z,83
2023-04-12T04:27:01.572Z,82
2023-04-12T04:30:26.824Z,82
2023-04-12T04:33:52.012Z,83
2023-04-12T04:37:17.330Z,83
2023-04-12T04:40:42.526Z,83
2023-04-12T04:44:07.742Z,84
2023-04-12T04:47:33.010Z,84
2023-04-12T04:50:58.181Z,84
2023-04-12T04:54:23.429Z,83
2023-04-12T04:57:48.685Z,84
2023-04-12T05:01:13.912Z,83
2023-04-12T05:04:39.143Z,84
2023-04-12T05:08:04.323Z,83
2023-04-12T05:11:29.536Z,83
2023-04-12T05:15:01.326Z,83
2023-04-12T05:18:19.990Z,84
2023-04-12T05:21:45.262Z,84
2023-04-12T05:25:10.414Z,85
2023-04-12T05:28:35.618Z,84
2023-04-12T05:32:00.814Z,84
2023-04-12T05:35:26.068Z,84
2023-04-12T05:38:51.305Z,84
2023-04-12T05:42:16.505Z,84
2023-04-12T05:45:41.822Z,84
2023-04-12T05:49:07.035Z,84
2023-04-12T05:52:32.282Z,84
2023-04-12T05:55:57.494Z,84
2023-04-12T05:59:22.697Z,84
2023-04-12T06:02:48.029Z,83
2023-04-12T06:06:13.096Z,83
2023-04-12T06:09:38.289Z,82
2023-04-12T06:13:03.547Z,81
2023-04-12T06:16:28.714Z,82
2023-04-12T06:19:53.911Z,82
2023-04-12T06:23:19.150Z,81
2023-04-12T06:26:44.348Z,80
2023-04-12T06:30:09.603Z,79
2023-04-12T06:33:34.760Z,80
2023-04-12T06:36:59.989Z,79
2023-04-12T06:40:25.155Z,79
2023-04-12T06:43:50.370Z,78
2023-04-12T06:47:15.677Z,79
2023-04-12T06:50:40.825Z,78
2023-04-12T06:54:06.174Z,78
2023-04-12T06:57:31.316Z,78
2023-04-12T07:00:56.522Z,78
2023-04-12T07:04:21.800Z,78
2023-04-12T07:07:46.966Z,80
2023-04-12T07:11:20.525Z,80
2023-04-12T07:14:37.383Z,80
2023-04-12T07:18:02.596Z,80
2023-04-12T07:21:27.951Z,80
2023-04-12T07:24:53.015Z,80
2023-04-12T07:28:18.229Z,79
2023-04-12T07:31:43.453Z,79
2023-04-12T07:35:08.695Z,79
2023-04-12T07:38:33.878Z,79
2023-04-12T07:41:59.047Z,78
2023-04-12T07:45:24.235Z,78
2023-04-12T07:48:49.451Z,80
2023-04-12T07:52:15.268Z,79
2023-04-12T07:55:40.507Z,78
2023-04-12T07:59:07.178Z,80
2023-04-12T08:02:32.671Z,79
2023-04-12T08:05:57.789Z,78
2023-04-12T08:09:22.999Z,78
2023-04-12T08:12:48.229Z,79
2023-04-12T08:16:13.431Z,78
2023-04-12T08:19:38.626Z,77
2023-04-12T08:23:03.839Z,78
2023-04-12T08:26:29.062Z,77
2023-04-12T08:29:54.397Z,77
2023-04-12T08:33:19.467Z,78
2023-04-12T08:36:44.695Z,78
2023-04-12T08:40:09.912Z,78
2023-04-12T08:43:35.346Z,78
2023-04-12T08:47:00.618Z,79
2023-04-12T08:50:25.768Z,79
2023-04-12T08:53:50.967Z,79
2023-04-12T08:57:16.256Z,79
2023-04-12T09:00:41.451Z,79
2023-04-12T09:04:06.912Z,77
2023-04-12T09:07:31.932Z,78
2023-04-12T09:10:57.240Z,78
2023-04-12T09:14:22.543Z,77
2023-04-12T09:17:47.816Z,76
2023-04-12T09:21:13.070Z,77
2023-04-12T09:24:38.265Z,76
2023-04-12T09:28:03.510Z,76
2023-04-12T09:31:28.841Z,77
2023-04-12T09:34:54.038Z,77
2023-04-12T09:38:19.325Z,78
2023-04-12T09:41:44.542Z,79
2023-04-12T09:45:09.880Z,80
2023-04-12T09:48:35.115Z,80
2023-04-12T09:52:00.347Z,81
2023-04-12T09:55:25.799Z,81
2023-04-12T09:58:50.859Z,82
2023-04-12T10:02:16.193Z,83
2023-04-12T10:05:41.371Z,83
2023-04-12T10:09:06.552Z,83
2023-04-12T10:12:31.799Z,84
2023-04-12T10:15:57.087Z,84
2023-04-12T10:19:22.328Z,84
2023-04-12T10:22:47.555Z,83
2023-04-12T10:26:12.870Z,83
2023-04-12T10:29:38.162Z,84
2023-04-12T10:33:03.372Z,85
2023-04-12T10:36:28.629Z,85
2023-04-12T10:39:53.916Z,86
2023-04-12T10:43:19.103Z,85
2023-04-12T10:46:44.401Z,85
2023-04-12T10:50:09.608Z,85
2023-04-12T10:53:34.839Z,86
2023-04-12T10:57:00.165Z,86
2023-04-12T11:00:25.414Z,85
2023-04-12T11:03:50.901Z,86
2023-04-12T11:07:15.836Z,85
2023-04-12T11:10:41.142Z,85
2023-04-12T11:14:06.358Z,85
2023-04-12T11:17:31.707Z,86
2023-04-12T11:20:57.020Z,86
2023-04-12T11:24:22.153Z,85
2023-04-12T11:27:47.377Z,86
2023-04-12T11:31:12.623Z,87
2023-04-12T11:34:37.804Z,88
2023-04-12T11:38:03.123Z,87
2023-04-12T11:41:28.339Z,87
2023-04-12T11:44:58.036Z,88
2023-04-12T11:48:18.869Z,88
2023-04-12T11:51:44.000Z,87
2023-04-12T11:55:09.222Z,88
2023-04-12T11:58:34.397Z,88
2023-04-12T12:01:59.649Z,87
2023-04-12T12:05:24.924Z,88
2023-04-12T12:08:50.008Z,87
2023-04-12T12:12:15.303Z,87
2023-04-12T12:15:40.527Z,86
2023-04-12T12:19:05.714Z,87
2023-04-12T12:22:30.872Z,86
2023-04-12T12:26:03.021Z,85
2023-04-12T12:29:21.329Z,86
2023-04-12T12:32:46.525Z,86
2023-04-12T12:36:11.779Z,87
2023-04-12T12:39:37.003Z,87
2023-04-12T12:43:02.242Z,87
2023-04-12T12:46:34.285Z,86
2023-04-12T12:49:52.738Z,87
2023-04-12T12:53:17.959Z,87
2023-04-12T12:56:43.177Z,89
2023-04-12T13:00:08.433Z,88
2023-04-12T13:03:33.914Z,89
2023-04-12T13:06:58.973Z,91
2023-04-12T13:10:24.303Z,89
2023-04-12T13:13:49.478Z,89
2023-04-12T13:17:14.758Z,88
2023-04-12T13:20:40.065Z,89
2023-04-12T13:24:05.393Z,88
2023-04-12T13:27:30.644Z,89
2023-04-12T13:30:55.934Z,89
2023-04-12T13:34:21.169Z,89
2023-04-12T13:37:46.467Z,88
2023-04-12T13:41:11.728Z,89
2023-04-12T13:44:36.983Z,90
2023-04-12T13:48:02.339Z,89
2023-04-12T13:51:27.440Z,89
2023-04-12T13:54:52.812Z,89
2023-04-12T13:58:17.968Z,89
2023-04-12T14:01:43.342Z,90
2023-04-12T14:05:08.589Z,90
2023-04-12T14:08:33.746Z,90
2023-04-12T14:11:59.089Z,90
2023-04-12T14:15:24.141Z,90
2023-04-12T15:54:31.250Z,93
2023-04-12T15:57:56.503Z,93
2023-04-12T16:01:21.815Z,93
2023-04-12T16:04:47.107Z,94
2023-04-12T16:08:12.284Z,93
2023-04-12T16:11:37.530Z,93
2023-04-12T16:15:02.723Z,93
2023-04-12T16:18:27.957Z,93
2023-04-12T16:21:53.188Z,94
2023-04-12T16:25:18.427Z,93
2023-04-12T16:28:43.722Z,94
2023-04-12T16:32:08.963Z,94
2023-04-12T16:35:34.211Z,94
2023-04-12T16:38:59.696Z,94
2023-04-12T16:42:24.749Z,94
2023-04-12T16:45:50.021Z,94
2023-04-12T16:49:16.652Z,94
2023-04-12T16:52:40.438Z,94
2023-04-12T16:56:05.695Z,94
2023-04-12T16:59:30.931Z,94
2023-04-12T17:03:23.172Z,94
2023-04-12T17:06:48.289Z,94
2023-04-12T17:10:13.529Z,94
2023-04-12T17:13:38.712Z,94
2023-04-12T17:17:05.864Z,94
2023-04-12T17:20:29.129Z,95
2023-04-12T17:23:54.375Z,95
2023-04-12T17:27:19.664Z,94
2023-04-12T17:30:44.924Z,94
2023-04-12T17:34:10.250Z,94
2023-04-12T17:37:35.467Z,94
2023-04-12T17:41:00.626Z,94
2023-04-12T17:44:25.875Z,94
2023-04-12T17:47:51.351Z,94
2023-04-12T17:51:16.529Z,94
2023-04-12T17:54:41.772Z,94
2023-04-12T17:58:06.968Z,95
2023-04-12T18:01:32.700Z,95
2023-04-12T18:04:57.426Z,95
2023-04-12T18:08:22.657Z,95
2023-04-12T18:11:47.943Z,95
2023-04-12T18:15:13.094Z,95
2023-04-12T18:18:38.304Z,94
2023-04-12T18:22:03.530Z,94
2023-04-12T18:25:28.766Z,94
2023-04-12T18:28:54.017Z,94
2023-04-12T18:32:19.330Z,94
2023-04-12T18:35:44.453Z,94
2023-04-12T18:39:09.659Z,94
2023-04-12T18:42:34.868Z,94
2023-04-12T18:46:00.102Z,94
2023-04-12T18:49:25.360Z,94
2023-04-12T18:52:50.579Z,94
2023-04-12T18:56:17.839Z,94
2023-04-12T18:59:41.070Z,94
2023-04-12T19:03:06.304Z,94
2023-04-12T19:06:31.404Z,93
2023-04-12T19:09:56.618Z,93
2023-04-12T19:13:21.893Z,92
2023-04-12T19:16:47.123Z,92
2023-04-12T19:20:12.412Z,91
2023-04-12T19:23:37.626Z,91
2023-04-12T19:27:02.875Z,92
2023-04-12T19:30:28.134Z,92
2023-04-12T19:33:53.313Z,92
2023-04-12T19:37:18.584Z,92
2023-04-12T19:40:43.803Z,92
2023-04-12T19:44:09.027Z,92
2023-04-12T19:47:34.343Z,92
2023-04-12T19:50:59.546Z,92
2023-04-12T19:54:24.739Z,92
2023-04-12T19:57:49.870Z,92
2023-04-12T20:01:15.099Z,92
2023-04-12T20:04:40.233Z,93
2023-04-12T20:08:05.403Z,93
2023-04-12T20:11:30.723Z,92
2023-04-12T20:14:55.731Z,92
2023-04-12T20:18:20.919Z,93
2023-04-12T20:21:46.075Z,92
2023-04-12T20:25:11.297Z,92
2023-04-12T20:28:36.520Z,92
2023-04-12T20:32:01.690Z,92
2023-04-12T20:35:26.824Z,92
2023-04-12T20:38:51.982Z,91
2023-04-12T20:42:17.144Z,91
2023-04-12T20:45:42.338Z,91
2023-04-12T20:49:07.488Z,91
2023-04-12T20:52:32.659Z,91
2023-04-12T20:55:57.805Z,91
2023-04-12T20:59:23.007Z,92
2023-04-12T21:02:48.242Z,92
2023-04-12T21:06:13.302Z,92
2023-04-12T21:09:38.487Z,92
2023-04-12T21:13:03.679Z,93
2023-04-12T21:16:28.878Z,93
2023-04-12T21:19:54.060Z,93
2023-04-12T21:23:19.200Z,93
2023-04-12T21:26:44.349Z,92
2023-04-12T21:30:09.564Z,92
2023-04-12T21:33:34.748Z,92
2023-04-12T21:36:59.948Z,92
2023-04-12T21:40:25.103Z,92
2023-04-12T21:43:50.342Z,91
2023-04-12T21:47:15.482Z,91
2023-04-12T21:50:40.650Z,91
2023-04-12T21:54:05.867Z,91
2023-04-12T21:57:31.002Z,91
2023-04-12T22:00:56.210Z,91
2023-04-12T22:04:21.393Z,90
2023-04-12T22:07:46.600Z,91
2023-04-12T22:11:11.784Z,91
2023-04-12T22:14:36.982Z,91
2023-04-12T22:18:02.201Z,91
2023-04-12T22:21:27.332Z,90
2023-04-12T22:24:52.520Z,91
2023-04-12T22:28:17.734Z,90
2023-04-12T22:31:42.904Z,90
2023-04-12T22:35:09.210Z,89
2023-04-12T22:38:33.290Z,87
2023-04-12T22:41:58.461Z,87
2023-04-12T22:45:23.659Z,88
2023-04-12T22:48:48.823Z,89
2023-04-12T22:52:14.006Z,88
2023-04-12T22:55:39.187Z,88
2023-04-12T22:59:04.384Z,88
2023-04-12T23:02:29.581Z,88
2023-04-12T23:05:54.711Z,88
2023-04-12T23:09:19.893Z,88
2023-04-12T23:12:45.060Z,88
2023-04-12T23:16:10.263Z,88
2023-04-12T23:19:35.437Z,88
2023-04-12T23:23:00.580Z,88
2023-04-12T23:26:25.755Z,88
2023-04-12T23:29:50.930Z,87
2023-04-12T23:33:16.105Z,87
2023-04-12T23:36:41.327Z,87
2023-04-12T23:40:06.484Z,86
2023-04-12T23:43:31.660Z,86
2023-04-12T23:46:56.841Z,86
2023-04-12T23:50:22.031Z,85
2023-04-12T23:53:47.210Z,85
2023-04-12T23:57:12.375Z,85
